sensor_id;sensor_type;location;lat;lon;timestamp;temperature;humidity
32640;DHT22;19049;52.524;11.468;2024-03-02T00:00:19;8.20;99.90
32640;DHT22;19049;52.524;11.468;2024-03-02T00:02:48;8.10;99.90
32640;DHT22;19049;52.524;11.468;2024-03-02T00:05:16;8.10;99.90
32640;DHT22;19049;52.524;11.468;2024-03-02T00:07:43;8.00;99.90
32640;DHT22;19049;52.524;11.468;2024-03-02T00:10:11;8.00;99.90
32640;DHT22;19049;52.524;11.468;2024-03-02T00:12:40;7.90;99.90
32640;DHT22;19049;52.524;11.468;2024-03-02T00:15:46;7.80;99.90
32640;DHT22;19049;52.524;11.468;2024-03-02T00:18:16;7.80;99.90
32640;DHT22;19049;52.524;11.468;2024-03-02T00:20:44;7.70;99.90
32640;DHT22;19049;52.524;11.468;2024-03-02T00:23:15;7.60;99.90
32640;DHT22;19049;52.524;11.468;2024-03-02T00:28:20;7.50;99.90
32640;DHT22;19049;52.524;11.468;2024-03-02T00:33:43;7.30;99.90
32640;DHT22;19049;52.524;11.468;2024-03-02T00:36:09;7.20;99.90
32640;DHT22;19049;52.524;11.468;2024-03-02T00:38:46;7.10;99.90
32640;DHT22;19049;52.524;11.468;2024-03-02T00:41:17;7.10;99.90
32640;DHT22;19049;52.524;11.468;2024-03-02T00:44:04;7.00;99.90
32640;DHT22;19049;52.524;11.468;2024-03-02T00:46:35;7.00;99.90
32640;DHT22;19049;52.524;11.468;2024-03-02T00:49:03;7.00;99.90
32640;DHT22;19049;52.524;11.468;2024-03-02T00:51:31;6.90;99.90
32640;DHT22;19049;52.524;11.468;2024-03-02T00:54:01;6.90;99.90
32640;DHT22;19049;52.524;11.468;2024-03-02T00:56:29;6.90;99.90
32640;DHT22;19049;52.524;11.468;2024-03-02T00:58:55;6.90;99.90
32640;DHT22;19049;52.524;11.468;2024-03-02T01:01:21;7.00;99.90
32640;DHT22;19049;52.524;11.468;2024-03-02T01:03:48;7.00;99.90
32640;DHT22;19049;52.524;11.468;2024-03-02T01:06:14;7.00;99.90
32640;DHT22;19049;52.524;11.468;2024-03-02T01:08:40;7.10;99.90
32640;DHT22;19049;52.524;11.468;2024-03-02T01:11:05;7.10;99.90
32640;DHT22;19049;52.524;11.468;2024-03-02T01:13:32;7.10;99.90
32640;DHT22;19049;52.524;11.468;2024-03-02T01:15:57;7.20;99.90
32640;DHT22;19049;52.524;11.468;2024-03-02T01:18:23;7.20;99.90
32640;DHT22;19049;52.524;11.468;2024-03-02T01:20:49;7.20;99.90
32640;DHT22;19049;52.524;11.468;2024-03-02T01:23:18;7.20;99.90
32640;DHT22;19049;52.524;11.468;2024-03-02T01:25:45;7.20;99.90
32640;DHT22;19049;52.524;11.468;2024-03-02T01:28:10;7.30;99.90
32640;DHT22;19049;52.524;11.468;2024-03-02T01:30:36;7.30;99.90
32640;DHT22;19049;52.524;11.468;2024-03-02T01:33:02;7.30;99.90
32640;DHT22;19049;52.524;11.468;2024-03-02T01:35:27;7.30;99.90
32640;DHT22;19049;52.524;11.468;2024-03-02T01:37:53;7.30;99.90
32640;DHT22;19049;52.524;11.468;2024-03-02T01:40:19;7.30;99.90
32640;DHT22;19049;52.524;11.468;2024-03-02T01:42:45;7.30;99.90
32640;DHT22;19049;52.524;11.468;2024-03-02T01:45:11;7.30;99.90
32640;DHT22;19049;52.524;11.468;2024-03-02T01:47:36;7.30;99.90
32640;DHT22;19049;52.524;11.468;2024-03-02T01:50:02;7.30;99.90
32640;DHT22;19049;52.524;11.468;2024-03-02T01:52:28;7.30;99.90
32640;DHT22;19049;52.524;11.468;2024-03-02T01:54:53;7.30;99.90
32640;DHT22;19049;52.524;11.468;2024-03-02T01:57:19;7.30;99.90
32640;DHT22;19049;52.524;11.468;2024-03-02T01:59:46;7.30;99.90
32640;DHT22;19049;52.524;11.468;2024-03-02T02:02:14;7.30;99.90
32640;DHT22;19049;52.524;11.468;2024-03-02T02:04:39;7.30;99.90
32640;DHT22;19049;52.524;11.468;2024-03-02T02:07:05;7.30;99.90
32640;DHT22;19049;52.524;11.468;2024-03-02T02:09:32;7.30;99.90
32640;DHT22;19049;52.524;11.468;2024-03-02T02:11:57;7.30;99.90
32640;DHT22;19049;52.524;11.468;2024-03-02T02:14:23;7.30;99.90
32640;DHT22;19049;52.524;11.468;2024-03-02T02:16:48;7.30;99.90
32640;DHT22;19049;52.524;11.468;2024-03-02T02:19:14;7.30;99.90
32640;DHT22;19049;52.524;11.468;2024-03-02T02:21:42;7.30;99.90
32640;DHT22;19049;52.524;11.468;2024-03-02T02:24:08;7.30;99.90
32640;DHT22;19049;52.524;11.468;2024-03-02T02:26:33;7.30;99.90
32640;DHT22;19049;52.524;11.468;2024-03-02T02:28:59;7.30;99.90
32640;DHT22;19049;52.524;11.468;2024-03-02T02:31:25;7.30;99.90
32640;DHT22;19049;52.524;11.468;2024-03-02T02:33:50;7.30;99.90
32640;DHT22;19049;52.524;11.468;2024-03-02T02:36:16;7.30;99.90
32640;DHT22;19049;52.524;11.468;2024-03-02T02:38:46;7.30;99.90
32640;DHT22;19049;52.524;11.468;2024-03-02T02:41:13;7.40;99.90
32640;DHT22;19049;52.524;11.468;2024-03-02T02:43:38;7.40;99.90
32640;DHT22;19049;52.524;11.468;2024-03-02T02:46:05;7.40;99.90
32640;DHT22;19049;52.524;11.468;2024-03-02T02:48:31;7.40;99.90
32640;DHT22;19049;52.524;11.468;2024-03-02T02:50:56;7.50;99.90
32640;DHT22;19049;52.524;11.468;2024-03-02T02:53:22;7.50;99.90
32640;DHT22;19049;52.524;11.468;2024-03-02T02:55:48;7.50;99.90
32640;DHT22;19049;52.524;11.468;2024-03-02T02:58:13;7.60;99.90
32640;DHT22;19049;52.524;11.468;2024-03-02T03:00:40;7.60;99.90
32640;DHT22;19049;52.524;11.468;2024-03-02T03:03:06;7.70;99.90
32640;DHT22;19049;52.524;11.468;2024-03-02T03:05:31;7.70;99.90
32640;DHT22;19049;52.524;11.468;2024-03-02T03:07:57;7.80;99.90
32640;DHT22;19049;52.524;11.468;2024-03-02T03:10:23;7.80;99.90
32640;DHT22;19049;52.524;11.468;2024-03-02T03:12:51;7.90;99.90
32640;DHT22;19049;52.524;11.468;2024-03-02T03:15:17;7.90;99.90
32640;DHT22;19049;52.524;11.468;2024-03-02T03:17:42;8.00;99.90
32640;DHT22;19049;52.524;11.468;2024-03-02T03:20:08;8.00;99.90
32640;DHT22;19049;52.524;11.468;2024-03-02T03:22:38;8.00;99.90
32640;DHT22;19049;52.524;11.468;2024-03-02T03:25:04;8.10;99.90
32640;DHT22;19049;52.524;11.468;2024-03-02T03:27:30;8.10;99.90
32640;DHT22;19049;52.524;11.468;2024-03-02T03:29:55;8.10;99.90
32640;DHT22;19049;52.524;11.468;2024-03-02T03:32:21;8.20;99.90
32640;DHT22;19049;52.524;11.468;2024-03-02T03:34:47;8.20;99.90
32640;DHT22;19049;52.524;11.468;2024-03-02T03:37:14;8.20;99.90
32640;DHT22;19049;52.524;11.468;2024-03-02T03:39:39;8.30;99.90
32640;DHT22;19049;52.524;11.468;2024-03-02T03:42:05;8.30;99.90
32640;DHT22;19049;52.524;11.468;2024-03-02T03:44:31;8.30;99.90
32640;DHT22;19049;52.524;11.468;2024-03-02T03:46:57;8.40;99.90
32640;DHT22;19049;52.524;11.468;2024-03-02T03:49:23;8.40;99.90
32640;DHT22;19049;52.524;11.468;2024-03-02T03:51:48;8.40;99.90
32640;DHT22;19049;52.524;11.468;2024-03-02T03:54:14;8.40;99.90
32640;DHT22;19049;52.524;11.468;2024-03-02T03:56:40;8.50;99.90
32640;DHT22;19049;52.524;11.468;2024-03-02T03:59:06;8.50;99.90
32640;DHT22;19049;52.524;11.468;2024-03-02T04:01:31;8.50;99.90
32640;DHT22;19049;52.524;11.468;2024-03-02T04:03:57;8.60;99.90
32640;DHT22;19049;52.524;11.468;2024-03-02T04:06:23;8.60;99.90
32640;DHT22;19049;52.524;11.468;2024-03-02T04:08:49;8.60;99.90
32640;DHT22;19049;52.524;11.468;2024-03-02T04:11:14;8.60;99.90
32640;DHT22;19049;52.524;11.468;2024-03-02T04:13:40;8.60;99.90
32640;DHT22;19049;52.524;11.468;2024-03-02T04:16:06;8.60;99.90
32640;DHT22;19049;52.524;11.468;2024-03-02T04:18:31;8.60;99.90
32640;DHT22;19049;52.524;11.468;2024-03-02T04:21:00;8.70;99.90
32640;DHT22;19049;52.524;11.468;2024-03-02T04:23:28;8.60;99.90
32640;DHT22;19049;52.524;11.468;2024-03-02T04:25:54;8.60;99.90
32640;DHT22;19049;52.524;11.468;2024-03-02T04:28:20;8.60;99.90
32640;DHT22;19049;52.524;11.468;2024-03-02T04:30:45;8.60;99.90
32640;DHT22;19049;52.524;11.468;2024-03-02T04:33:11;8.50;99.90
32640;DHT22;19049;52.524;11.468;2024-03-02T04:35:37;8.50;99.90
32640;DHT22;19049;52.524;11.468;2024-03-02T04:38:02;8.40;99.90
32640;DHT22;19049;52.524;11.468;2024-03-02T04:40:28;8.40;99.90
32640;DHT22;19049;52.524;11.468;2024-03-02T04:42:54;8.40;99.90
32640;DHT22;19049;52.524;11.468;2024-03-02T04:45:19;8.40;99.90
32640;DHT22;19049;52.524;11.468;2024-03-02T04:47:45;8.40;99.90
32640;DHT22;19049;52.524;11.468;2024-03-02T04:50:10;8.30;99.90
32640;DHT22;19049;52.524;11.468;2024-03-02T04:52:36;8.30;99.90
32640;DHT22;19049;52.524;11.468;2024-03-02T04:55:03;8.30;99.90
32640;DHT22;19049;52.524;11.468;2024-03-02T04:57:35;8.30;99.90
32640;DHT22;19049;52.524;11.468;2024-03-02T05:00:01;8.30;99.90
32640;DHT22;19049;52.524;11.468;2024-03-02T05:02:27;8.30;99.90
32640;DHT22;19049;52.524;11.468;2024-03-02T05:04:52;8.30;99.90
32640;DHT22;19049;52.524;11.468;2024-03-02T05:07:18;8.30;99.90
32640;DHT22;19049;52.524;11.468;2024-03-02T05:09:44;8.30;99.90
32640;DHT22;19049;52.524;11.468;2024-03-02T05:12:10;8.30;99.90
32640;DHT22;19049;52.524;11.468;2024-03-02T05:14:41;8.30;99.90
32640;DHT22;19049;52.524;11.468;2024-03-02T05:17:07;8.30;99.90
32640;DHT22;19049;52.524;11.468;2024-03-02T05:19:32;8.30;99.90
32640;DHT22;19049;52.524;11.468;2024-03-02T05:21:58;8.30;99.90
32640;DHT22;19049;52.524;11.468;2024-03-02T05:24:24;8.40;99.90
32640;DHT22;19049;52.524;11.468;2024-03-02T05:26:52;8.30;99.90
32640;DHT22;19049;52.524;11.468;2024-03-02T05:29:18;8.30;99.90
32640;DHT22;19049;52.524;11.468;2024-03-02T05:31:44;8.30;99.90
32640;DHT22;19049;52.524;11.468;2024-03-02T05:34:09;8.30;99.90
32640;DHT22;19049;52.524;11.468;2024-03-02T05:36:35;8.40;99.90
32640;DHT22;19049;52.524;11.468;2024-03-02T05:39:01;8.40;99.90
32640;DHT22;19049;52.524;11.468;2024-03-02T05:41:27;8.40;99.90
32640;DHT22;19049;52.524;11.468;2024-03-02T05:43:53;8.40;99.90
32640;DHT22;19049;52.524;11.468;2024-03-02T05:46:19;8.40;99.90
32640;DHT22;19049;52.524;11.468;2024-03-02T05:48:44;8.40;99.90
32640;DHT22;19049;52.524;11.468;2024-03-02T05:51:10;8.40;99.90
32640;DHT22;19049;52.524;11.468;2024-03-02T05:53:35;8.30;99.90
32640;DHT22;19049;52.524;11.468;2024-03-02T05:56:04;8.40;99.90
32640;DHT22;19049;52.524;11.468;2024-03-02T05:58:30;8.40;99.90
32640;DHT22;19049;52.524;11.468;2024-03-02T06:01:15;8.40;99.90
32640;DHT22;19049;52.524;11.468;2024-03-02T06:03:41;8.40;99.90
32640;DHT22;19049;52.524;11.468;2024-03-02T06:06:06;8.40;99.90
32640;DHT22;19049;52.524;11.468;2024-03-02T06:08:32;8.40;99.90
32640;DHT22;19049;52.524;11.468;2024-03-02T06:10:57;8.40;99.90
32640;DHT22;19049;52.524;11.468;2024-03-02T06:13:24;8.40;99.90
32640;DHT22;19049;52.524;11.468;2024-03-02T06:15:52;8.50;99.90
32640;DHT22;19049;52.524;11.468;2024-03-02T06:18:17;8.40;99.90
32640;DHT22;19049;52.524;11.468;2024-03-02T06:20:43;8.40;99.90
32640;DHT22;19049;52.524;11.468;2024-03-02T06:23:08;8.50;99.90
32640;DHT22;19049;52.524;11.468;2024-03-02T06:25:34;8.50;99.90
32640;DHT22;19049;52.524;11.468;2024-03-02T06:28:00;8.50;99.90
32640;DHT22;19049;52.524;11.468;2024-03-02T06:30:25;8.50;99.90
32640;DHT22;19049;52.524;11.468;2024-03-02T06:32:51;8.50;99.90
32640;DHT22;19049;52.524;11.468;2024-03-02T06:35:17;8.50;99.90
32640;DHT22;19049;52.524;11.468;2024-03-02T06:37:42;8.50;99.90
32640;DHT22;19049;52.524;11.468;2024-03-02T06:40:08;8.60;99.90
32640;DHT22;19049;52.524;11.468;2024-03-02T06:42:34;8.60;99.90
32640;DHT22;19049;52.524;11.468;2024-03-02T06:45:01;8.60;99.90
32640;DHT22;19049;52.524;11.468;2024-03-02T06:47:26;8.60;99.90
32640;DHT22;19049;52.524;11.468;2024-03-02T06:49:52;8.60;99.90
32640;DHT22;19049;52.524;11.468;2024-03-02T06:52:18;8.70;99.90
32640;DHT22;19049;52.524;11.468;2024-03-02T06:54:44;8.70;99.90
32640;DHT22;19049;52.524;11.468;2024-03-02T06:57:09;8.70;99.90
32640;DHT22;19049;52.524;11.468;2024-03-02T06:59:35;8.80;99.90
32640;DHT22;19049;52.524;11.468;2024-03-02T07:02:01;8.80;99.90
32640;DHT22;19049;52.524;11.468;2024-03-02T07:04:27;8.80;99.90
32640;DHT22;19049;52.524;11.468;2024-03-02T07:06:52;8.80;99.90
32640;DHT22;19049;52.524;11.468;2024-03-02T07:09:18;8.90;99.90
32640;DHT22;19049;52.524;11.468;2024-03-02T07:11:48;8.90;99.90
32640;DHT22;19049;52.524;11.468;2024-03-02T07:14:13;9.00;99.90
32640;DHT22;19049;52.524;11.468;2024-03-02T07:16:39;9.00;99.90
32640;DHT22;19049;52.524;11.468;2024-03-02T07:19:06;9.10;99.90
32640;DHT22;19049;52.524;11.468;2024-03-02T07:21:32;9.10;99.90
32640;DHT22;19049;52.524;11.468;2024-03-02T07:23:58;9.10;99.90
32640;DHT22;19049;52.524;11.468;2024-03-02T07:26:25;9.20;99.90
32640;DHT22;19049;52.524;11.468;2024-03-02T07:28:50;9.30;99.90
32640;DHT22;19049;52.524;11.468;2024-03-02T07:31:16;9.30;99.90
32640;DHT22;19049;52.524;11.468;2024-03-02T07:33:45;9.40;99.90
32640;DHT22;19049;52.524;11.468;2024-03-02T07:36:14;9.40;99.90
32640;DHT22;19049;52.524;11.468;2024-03-02T07:38:39;9.50;99.90
32640;DHT22;19049;52.524;11.468;2024-03-02T07:41:06;9.50;99.90
32640;DHT22;19049;52.524;11.468;2024-03-02T07:43:32;9.60;99.90
32640;DHT22;19049;52.524;11.468;2024-03-02T07:45:59;9.70;99.90
32640;DHT22;19049;52.524;11.468;2024-03-02T07:48:25;9.70;99.90
32640;DHT22;19049;52.524;11.468;2024-03-02T07:50:50;9.80;99.90
32640;DHT22;19049;52.524;11.468;2024-03-02T07:53:16;9.90;99.90
32640;DHT22;19049;52.524;11.468;2024-03-02T07:55:42;10.00;99.90
32640;DHT22;19049;52.524;11.468;2024-03-02T07:58:08;10.10;99.90
32640;DHT22;19049;52.524;11.468;2024-03-02T08:00:34;10.20;99.90
32640;DHT22;19049;52.524;11.468;2024-03-02T08:03:00;10.40;99.90
32640;DHT22;19049;52.524;11.468;2024-03-02T08:05:26;10.50;99.90
32640;DHT22;19049;52.524;11.468;2024-03-02T08:07:52;10.60;99.90
32640;DHT22;19049;52.524;11.468;2024-03-02T08:10:18;10.80;99.90
32640;DHT22;19049;52.524;11.468;2024-03-02T08:12:44;11.00;99.90
32640;DHT22;19049;52.524;11.468;2024-03-02T08:15:10;11.10;99.90
32640;DHT22;19049;52.524;11.468;2024-03-02T08:17:35;11.20;99.90
32640;DHT22;19049;52.524;11.468;2024-03-02T08:20:01;11.40;99.90
32640;DHT22;19049;52.524;11.468;2024-03-02T08:22:27;11.50;99.90
32640;DHT22;19049;52.524;11.468;2024-03-02T08:24:53;11.60;99.90
32640;DHT22;19049;52.524;11.468;2024-03-02T08:27:20;11.70;99.90
32640;DHT22;19049;52.524;11.468;2024-03-02T08:29:45;11.80;99.90
32640;DHT22;19049;52.524;11.468;2024-03-02T08:32:11;11.90;99.90
32640;DHT22;19049;52.524;11.468;2024-03-02T08:34:36;12.00;99.90
32640;DHT22;19049;52.524;11.468;2024-03-02T08:37:02;12.10;99.90
32640;DHT22;19049;52.524;11.468;2024-03-02T08:39:28;12.20;99.90
32640;DHT22;19049;52.524;11.468;2024-03-02T08:41:54;12.30;99.90
32640;DHT22;19049;52.524;11.468;2024-03-02T08:44:20;12.40;99.90
32640;DHT22;19049;52.524;11.468;2024-03-02T08:46:46;12.40;99.90
32640;DHT22;19049;52.524;11.468;2024-03-02T08:49:12;12.50;99.90
32640;DHT22;19049;52.524;11.468;2024-03-02T08:51:38;12.60;99.90
32640;DHT22;19049;52.524;11.468;2024-03-02T08:54:04;12.70;99.90
32640;DHT22;19049;52.524;11.468;2024-03-02T08:56:31;12.70;99.90
32640;DHT22;19049;52.524;11.468;2024-03-02T08:58:56;12.80;99.90
32640;DHT22;19049;52.524;11.468;2024-03-02T09:01:22;12.80;99.90
32640;DHT22;19049;52.524;11.468;2024-03-02T09:03:48;12.80;99.90
32640;DHT22;19049;52.524;11.468;2024-03-02T09:06:17;12.90;99.90
32640;DHT22;19049;52.524;11.468;2024-03-02T09:08:43;13.00;99.90
32640;DHT22;19049;52.524;11.468;2024-03-02T09:11:10;13.10;99.90
32640;DHT22;19049;52.524;11.468;2024-03-02T09:13:36;13.20;99.90
32640;DHT22;19049;52.524;11.468;2024-03-02T09:16:03;13.40;99.90
32640;DHT22;19049;52.524;11.468;2024-03-02T09:18:29;13.70;99.90
32640;DHT22;19049;52.524;11.468;2024-03-02T09:20:55;13.90;99.90
32640;DHT22;19049;52.524;11.468;2024-03-02T09:23:21;14.20;99.90
32640;DHT22;19049;52.524;11.468;2024-03-02T09:25:46;14.30;99.90
32640;DHT22;19049;52.524;11.468;2024-03-02T09:28:12;14.50;99.90
32640;DHT22;19049;52.524;11.468;2024-03-02T09:30:38;14.50;99.90
32640;DHT22;19049;52.524;11.468;2024-03-02T09:33:03;14.60;99.90
32640;DHT22;19049;52.524;11.468;2024-03-02T09:35:29;14.80;99.90
32640;DHT22;19049;52.524;11.468;2024-03-02T09:37:55;14.90;99.90
32640;DHT22;19049;52.524;11.468;2024-03-02T09:40:24;15.20;99.90
32640;DHT22;19049;52.524;11.468;2024-03-02T09:42:51;15.40;99.90
32640;DHT22;19049;52.524;11.468;2024-03-02T09:45:25;15.60;99.90
32640;DHT22;19049;52.524;11.468;2024-03-02T09:47:50;15.90;99.90
32640;DHT22;19049;52.524;11.468;2024-03-02T09:50:16;16.00;99.90
32640;DHT22;19049;52.524;11.468;2024-03-02T09:52:43;16.10;99.90
32640;DHT22;19049;52.524;11.468;2024-03-02T09:55:09;16.20;99.90
32640;DHT22;19049;52.524;11.468;2024-03-02T09:57:36;16.30;99.90
32640;DHT22;19049;52.524;11.468;2024-03-02T10:00:09;16.40;99.90
32640;DHT22;19049;52.524;11.468;2024-03-02T10:02:43;16.50;99.90
32640;DHT22;19049;52.524;11.468;2024-03-02T10:05:09;16.60;99.90
32640;DHT22;19049;52.524;11.468;2024-03-02T10:07:35;16.70;99.90
32640;DHT22;19049;52.524;11.468;2024-03-02T10:10:13;16.80;99.90
32640;DHT22;19049;52.524;11.468;2024-03-02T10:12:39;16.80;99.90
32640;DHT22;19049;52.524;11.468;2024-03-02T10:15:05;16.90;99.90
32640;DHT22;19049;52.524;11.468;2024-03-02T10:17:31;16.90;99.90
32640;DHT22;19049;52.524;11.468;2024-03-02T10:19:57;16.90;99.90
32640;DHT22;19049;52.524;11.468;2024-03-02T10:22:23;16.90;99.90
32640;DHT22;19049;52.524;11.468;2024-03-02T10:24:49;16.80;99.50
32640;DHT22;19049;52.524;11.468;2024-03-02T10:27:25;16.80;99.90
32640;DHT22;19049;52.524;11.468;2024-03-02T10:29:51;16.80;99.90
32640;DHT22;19049;52.524;11.468;2024-03-02T10:32:17;16.90;99.90
32640;DHT22;19049;52.524;11.468;2024-03-02T10:34:44;16.90;99.90
32640;DHT22;19049;52.524;11.468;2024-03-02T10:37:11;17.00;99.90
32640;DHT22;19049;52.524;11.468;2024-03-02T10:39:37;17.10;99.70
32640;DHT22;19049;52.524;11.468;2024-03-02T10:42:05;17.20;99.60
32640;DHT22;19049;52.524;11.468;2024-03-02T10:44:32;17.20;98.40
32640;DHT22;19049;52.524;11.468;2024-03-02T10:47:02;17.20;98.40
32640;DHT22;19049;52.524;11.468;2024-03-02T10:49:32;17.30;98.60
32640;DHT22;19049;52.524;11.468;2024-03-02T10:52:01;17.40;98.60
32640;DHT22;19049;52.524;11.468;2024-03-02T10:54:27;17.40;98.30
32640;DHT22;19049;52.524;11.468;2024-03-02T10:57:01;17.50;98.50
32640;DHT22;19049;52.524;11.468;2024-03-02T10:59:35;17.60;98.60
32640;DHT22;19049;52.524;11.468;2024-03-02T11:02:03;17.80;98.00
32640;DHT22;19049;52.524;11.468;2024-03-02T11:04:30;18.00;97.90
32640;DHT22;19049;52.524;11.468;2024-03-02T11:07:07;18.10;97.30
32640;DHT22;19049;52.524;11.468;2024-03-02T11:09:34;18.20;96.00
32640;DHT22;19049;52.524;11.468;2024-03-02T11:12:09;18.20;96.10
32640;DHT22;19049;52.524;11.468;2024-03-02T11:14:41;18.30;96.10
32640;DHT22;19049;52.524;11.468;2024-03-02T11:17:09;18.30;95.80
32640;DHT22;19049;52.524;11.468;2024-03-02T11:19:37;18.40;95.30
32640;DHT22;19049;52.524;11.468;2024-03-02T11:22:03;18.40;95.20
32640;DHT22;19049;52.524;11.468;2024-03-02T11:24:31;18.50;95.00
32640;DHT22;19049;52.524;11.468;2024-03-02T11:27:06;18.50;95.20
32640;DHT22;19049;52.524;11.468;2024-03-02T11:32:22;18.70;95.20
32640;DHT22;19049;52.524;11.468;2024-03-02T11:34:50;18.70;94.90
32640;DHT22;19049;52.524;11.468;2024-03-02T11:37:18;18.70;94.90
32640;DHT22;19049;52.524;11.468;2024-03-02T11:39:49;18.70;95.20
32640;DHT22;19049;52.524;11.468;2024-03-02T11:42:15;18.70;94.20
32640;DHT22;19049;52.524;11.468;2024-03-02T11:44:46;18.80;94.60
32640;DHT22;19049;52.524;11.468;2024-03-02T11:47:16;18.90;94.40
32640;DHT22;19049;52.524;11.468;2024-03-02T11:49:49;18.90;94.30
32640;DHT22;19049;52.524;11.468;2024-03-02T11:52:17;19.10;93.40
32640;DHT22;19049;52.524;11.468;2024-03-02T11:54:45;19.30;94.40
32640;DHT22;19049;52.524;11.468;2024-03-02T11:57:21;19.50;93.60
32640;DHT22;19049;52.524;11.468;2024-03-02T11:59:48;19.80;92.80
32640;DHT22;19049;52.524;11.468;2024-03-02T12:02:20;19.90;92.60
32640;DHT22;19049;52.524;11.468;2024-03-02T12:04:47;20.10;91.60
32640;DHT22;19049;52.524;11.468;2024-03-02T12:07:19;20.10;91.20
32640;DHT22;19049;52.524;11.468;2024-03-02T12:09:46;20.20;90.80
32640;DHT22;19049;52.524;11.468;2024-03-02T12:12:11;20.40;91.40
32640;DHT22;19049;52.524;11.468;2024-03-02T12:14:40;20.50;91.00
32640;DHT22;19049;52.524;11.468;2024-03-02T12:17:14;20.60;90.60
32640;DHT22;19049;52.524;11.468;2024-03-02T12:19:40;20.80;90.50
32640;DHT22;19049;52.524;11.468;2024-03-02T12:22:06;21.00;90.20
32640;DHT22;19049;52.524;11.468;2024-03-02T12:24:31;21.10;87.40
32640;DHT22;19049;52.524;11.468;2024-03-02T12:26:57;21.30;87.50
32640;DHT22;19049;52.524;11.468;2024-03-02T12:29:23;21.30;81.00
32640;DHT22;19049;52.524;11.468;2024-03-02T12:31:52;21.30;82.60
32640;DHT22;19049;52.524;11.468;2024-03-02T12:34:18;21.20;79.90
32640;DHT22;19049;52.524;11.468;2024-03-02T12:36:46;21.30;78.20
32640;DHT22;19049;52.524;11.468;2024-03-02T12:39:15;21.30;80.10
32640;DHT22;19049;52.524;11.468;2024-03-02T12:41:41;21.30;81.40
32640;DHT22;19049;52.524;11.468;2024-03-02T12:44:08;21.40;80.40
32640;DHT22;19049;52.524;11.468;2024-03-02T12:46:33;21.40;79.00
32640;DHT22;19049;52.524;11.468;2024-03-02T12:49:07;21.50;80.00
32640;DHT22;19049;52.524;11.468;2024-03-02T12:51:33;21.60;80.60
32640;DHT22;19049;52.524;11.468;2024-03-02T12:53:59;21.70;80.30
32640;DHT22;19049;52.524;11.468;2024-03-02T12:56:25;21.90;79.20
32640;DHT22;19049;52.524;11.468;2024-03-02T12:58:55;22.00;78.20
32640;DHT22;19049;52.524;11.468;2024-03-02T13:01:21;22.10;75.30
32640;DHT22;19049;52.524;11.468;2024-03-02T13:03:50;22.10;78.20
32640;DHT22;19049;52.524;11.468;2024-03-02T13:06:17;22.10;74.20
32640;DHT22;19049;52.524;11.468;2024-03-02T13:08:42;22.00;75.40
32640;DHT22;19049;52.524;11.468;2024-03-02T13:11:09;21.90;76.10
32640;DHT22;19049;52.524;11.468;2024-03-02T13:13:35;22.00;74.60
32640;DHT22;19049;52.524;11.468;2024-03-02T13:16:01;22.00;75.90
32640;DHT22;19049;52.524;11.468;2024-03-02T13:18:28;22.10;75.40
32640;DHT22;19049;52.524;11.468;2024-03-02T13:20:54;22.20;74.00
32640;DHT22;19049;52.524;11.468;2024-03-02T13:23:21;22.40;74.70
32640;DHT22;19049;52.524;11.468;2024-03-02T13:25:47;22.50;70.90
32640;DHT22;19049;52.524;11.468;2024-03-02T13:28:13;22.70;71.70
32640;DHT22;19049;52.524;11.468;2024-03-02T13:30:38;22.90;71.80
32640;DHT22;19049;52.524;11.468;2024-03-02T13:33:04;23.10;69.20
32640;DHT22;19049;52.524;11.468;2024-03-02T13:35:30;23.20;69.70
32640;DHT22;19049;52.524;11.468;2024-03-02T13:37:56;23.40;66.80
32640;DHT22;19049;52.524;11.468;2024-03-02T13:40:21;23.40;65.70
32640;DHT22;19049;52.524;11.468;2024-03-02T13:42:49;23.50;62.70
32640;DHT22;19049;52.524;11.468;2024-03-02T13:45:16;23.50;63.00
32640;DHT22;19049;52.524;11.468;2024-03-02T13:47:42;23.40;61.30
32640;DHT22;19049;52.524;11.468;2024-03-02T13:50:08;23.20;61.90
32640;DHT22;19049;52.524;11.468;2024-03-02T13:52:34;22.90;63.50
32640;DHT22;19049;52.524;11.468;2024-03-02T13:54:59;22.60;63.20
32640;DHT22;19049;52.524;11.468;2024-03-02T13:57:25;22.30;63.30
32640;DHT22;19049;52.524;11.468;2024-03-02T13:59:51;22.00;64.00
32640;DHT22;19049;52.524;11.468;2024-03-02T14:02:17;21.60;64.80
32640;DHT22;19049;52.524;11.468;2024-03-02T14:04:43;21.10;66.10
32640;DHT22;19049;52.524;11.468;2024-03-02T14:07:09;20.80;66.90
32640;DHT22;19049;52.524;11.468;2024-03-02T14:09:37;20.50;68.20
32640;DHT22;19049;52.524;11.468;2024-03-02T14:12:03;20.30;67.30
32640;DHT22;19049;52.524;11.468;2024-03-02T14:14:29;20.10;68.80
32640;DHT22;19049;52.524;11.468;2024-03-02T14:16:55;20.00;68.60
32640;DHT22;19049;52.524;11.468;2024-03-02T14:19:21;19.90;68.00
32640;DHT22;19049;52.524;11.468;2024-03-02T14:21:47;20.00;69.20
32640;DHT22;19049;52.524;11.468;2024-03-02T14:24:13;20.00;69.60
32640;DHT22;19049;52.524;11.468;2024-03-02T14:26:39;20.20;70.70
32640;DHT22;19049;52.524;11.468;2024-03-02T14:29:06;20.40;71.50
32640;DHT22;19049;52.524;11.468;2024-03-02T14:31:32;20.50;71.80
32640;DHT22;19049;52.524;11.468;2024-03-02T14:33:58;20.70;70.60
32640;DHT22;19049;52.524;11.468;2024-03-02T14:36:24;20.80;68.70
32640;DHT22;19049;52.524;11.468;2024-03-02T14:38:51;20.80;67.70
32640;DHT22;19049;52.524;11.468;2024-03-02T14:41:16;20.80;68.40
32640;DHT22;19049;52.524;11.468;2024-03-02T14:43:42;20.70;68.40
32640;DHT22;19049;52.524;11.468;2024-03-02T14:46:08;20.60;67.80
32640;DHT22;19049;52.524;11.468;2024-03-02T14:48:35;20.50;68.30
32640;DHT22;19049;52.524;11.468;2024-03-02T14:51:00;20.40;68.30
32640;DHT22;19049;52.524;11.468;2024-03-02T14:53:27;20.20;69.10
32640;DHT22;19049;52.524;11.468;2024-03-02T14:55:53;20.10;70.00
32640;DHT22;19049;52.524;11.468;2024-03-02T14:58:19;20.00;71.00
32640;DHT22;19049;52.524;11.468;2024-03-02T15:00:45;20.00;71.10
32640;DHT22;19049;52.524;11.468;2024-03-02T15:03:10;20.00;71.60
32640;DHT22;19049;52.524;11.468;2024-03-02T15:05:37;20.10;71.50
32640;DHT22;19049;52.524;11.468;2024-03-02T15:08:04;20.00;70.60
32640;DHT22;19049;52.524;11.468;2024-03-02T15:10:30;20.00;69.70
32640;DHT22;19049;52.524;11.468;2024-03-02T15:12:57;19.90;68.90
32640;DHT22;19049;52.524;11.468;2024-03-02T15:15:22;19.90;68.00
32640;DHT22;19049;52.524;11.468;2024-03-02T15:17:48;19.80;68.80
32640;DHT22;19049;52.524;11.468;2024-03-02T15:20:14;19.80;67.80
32640;DHT22;19049;52.524;11.468;2024-03-02T15:22:40;19.70;68.00
32640;DHT22;19049;52.524;11.468;2024-03-02T15:25:06;19.60;67.30
32640;DHT22;19049;52.524;11.468;2024-03-02T15:27:32;19.50;68.50